Time;durP1;ratioP1;P1;durP2;ratioP2;P2;SDS_P1;SDS_P2;PMS_P1;PMS_P2;Temp;Humidity;BMP_temperature;BMP_pressure;BME280_temperature;BME280_humidity;BME280_pressure;Samples;Min_cycle;Max_cycle;Signal;HPM_P1;HPM_P2
2022/03/01 00:00:40;;;;;;;20.95;9.55;;;6.50;53.30;;;;;;5116647;28;20047;-69
2022/03/01 00:03:06;;;;;;;19.08;8.95;;;6.40;53.40;;;;;;5116504;28;20026;-69
2022/03/01 00:05:32;;;;;;;18.02;9.20;;;6.40;53.60;;;;;;5098818;28;20102;-69
2022/03/01 00:07:58;;;;;;;17.23;8.88;;;6.50;53.80;;;;;;5081852;28;20059;-69
2022/03/01 00:10:24;;;;;;;17.88;9.05;;;6.40;53.60;;;;;;5116430;28;20033;-69
2022/03/01 00:12:49;;;;;;;15.05;8.32;;;6.40;53.70;;;;;;5116403;28;20028;-69
2022/03/01 00:15:15;;;;;;;18.52;8.60;;;6.40;53.40;;;;;;5098434;28;20028;-69
2022/03/01 00:17:41;;;;;;;18.90;9.13;;;6.40;53.70;;;;;;5116308;28;20046;-69
2022/03/01 00:20:07;;;;;;;18.17;9.27;;;6.40;54.00;;;;;;5116251;28;20026;-68
2022/03/01 00:22:33;;;;;;;18.50;9.60;;;6.40;54.20;;;;;;5116256;28;20055;-69
2022/03/01 00:24:59;;;;;;;17.98;8.98;;;6.50;54.30;;;;;;5116107;28;20016;-69
2022/03/01 00:27:25;;;;;;;16.52;8.32;;;6.40;53.60;;;;;;5116213;28;20028;-69
2022/03/01 00:29:51;;;;;;;18.05;8.80;;;6.30;53.50;;;;;;5116044;28;20032;-69
2022/03/01 00:32:16;;;;;;;19.05;9.45;;;6.30;54.00;;;;;;5116024;28;20055;-69
2022/03/01 00:34:42;;;;;;;16.15;8.73;;;6.30;54.10;;;;;;5115954;28;20036;-68
2022/03/01 00:37:08;;;;;;;16.23;8.00;;;6.30;54.10;;;;;;5115924;28;20028;-69
2022/03/01 00:39:34;;;;;;;17.02;8.77;;;6.40;54.30;;;;;;5115895;28;20028;-69
2022/03/01 00:41:59;;;;;;;16.13;8.80;;;6.40;54.40;;;;;;5097668;28;20466;-68
2022/03/01 00:44:25;;;;;;;18.08;9.27;;;6.40;54.30;;;;;;5115591;28;20040;-68
2022/03/01 00:46:51;;;;;;;17.73;8.80;;;6.30;54.40;;;;;;5115752;28;20027;-69
2022/03/01 00:49:16;;;;;;;19.42;9.77;;;6.20;54.60;;;;;;5115733;28;20021;-69
2022/03/01 00:51:42;;;;;;;14.80;8.23;;;6.10;54.70;;;;;;5115639;28;20027;-69
2022/03/01 00:54:08;;;;;;;18.23;8.80;;;6.10;54.20;;;;;;5115577;28;20390;-69
2022/03/01 00:56:34;;;;;;;16.80;8.50;;;6.00;54.40;;;;;;5115542;28;20035;-69
2022/03/01 00:59:00;;;;;;;17.48;8.82;;;6.00;54.80;;;;;;5115503;28;20044;-69
2022/03/01 01:01:26;;;;;;;16.00;8.52;;;6.00;55.00;;;;;;5115366;28;20080;-69
2022/03/01 01:03:52;;;;;;;18.90;9.15;;;6.10;54.80;;;;;;5115402;28;20031;-69
2022/03/01 01:06:18;;;;;;;17.98;8.70;;;6.10;54.80;;;;;;5115340;28;20016;-69
2022/03/01 01:08:44;;;;;;;17.55;8.15;;;6.10;54.60;;;;;;5114830;28;20050;-68
2022/03/01 01:11:09;;;;;;;17.65;8.68;;;6.00;54.40;;;;;;5115315;28;20024;-69
2022/03/01 01:13:35;;;;;;;16.45;7.75;;;6.00;54.40;;;;;;5115242;28;20052;-68
2022/03/01 01:16:01;;;;;;;17.50;8.30;;;6.00;54.30;;;;;;5115129;28;20032;-69
2022/03/01 01:18:26;;;;;;;18.65;8.43;;;6.00;54.60;;;;;;5115135;28;20053;-69
2022/03/01 01:20:52;;;;;;;16.73;8.43;;;6.00;54.70;;;;;;5115069;28;20027;-69
2022/03/01 01:23:18;;;;;;;15.48;8.18;;;5.90;54.60;;;;;;5114931;28;20024;-69
2022/03/01 01:25:44;;;;;;;17.00;8.88;;;5.90;54.60;;;;;;5114918;28;20016;-69
2022/03/01 01:28:10;;;;;;;17.92;8.93;;;6.00;54.90;;;;;;5097180;28;20032;-69
2022/03/01 01:30:36;;;;;;;18.83;8.95;;;6.00;54.70;;;;;;5114913;28;20084;-68
2022/03/01 01:33:02;;;;;;;21.95;9.32;;;6.10;54.90;;;;;;5114889;28;20028;-69
2022/03/01 01:35:31;;;;;;;16.60;8.52;;;6.10;55.10;;;;;;5114826;28;20036;-69
2022/03/01 01:37:57;;;;;;;18.35;8.70;;;6.10;54.70;;;;;;5114711;28;20028;-69
2022/03/01 01:40:26;;;;;;;15.23;8.70;;;6.10;54.50;;;;;;5114696;28;20036;-69
2022/03/01 01:42:53;;;;;;;19.20;8.55;;;6.10;54.40;;;;;;5114542;28;20020;-69
2022/03/01 01:45:21;;;;;;;14.65;8.07;;;6.00;54.60;;;;;;5114485;28;20092;-69
2022/03/01 01:47:47;;;;;;;19.10;9.20;;;5.90;55.00;;;;;;5096867;28;20073;-68
2022/03/01 01:50:13;;;;;;;18.35;8.77;;;5.90;55.30;;;;;;5114529;28;20084;-68
2022/03/01 01:52:39;;;;;;;15.88;8.15;;;6.00;55.50;;;;;;5114427;28;20029;-69
2022/03/01 01:55:05;;;;;;;20.40;9.02;;;6.00;55.00;;;;;;5114446;28;20067;-68
2022/03/01 01:57:31;;;;;;;16.42;8.73;;;5.90;55.00;;;;;;5114385;28;20054;-68
2022/03/01 01:59:57;;;;;;;17.63;8.45;;;5.90;55.50;;;;;;5114330;28;20084;-69
2022/03/01 02:02:24;;;;;;;17.83;9.07;;;5.90;55.40;;;;;;5114213;28;20024;-69
2022/03/01 02:04:50;;;;;;;16.75;9.23;;;5.90;55.30;;;;;;5096268;28;20020;-69
2022/03/01 02:07:16;;;;;;;17.58;8.85;;;5.90;54.90;;;;;;5114167;28;20035;-69
2022/03/01 02:09:42;;;;;;;20.92;8.95;;;5.80;54.70;;;;;;5114116;28;20027;-69
2022/03/01 02:12:08;;;;;;;15.60;8.18;;;5.80;54.90;;;;;;5114118;28;20040;-69
2022/03/01 02:14:35;;;;;;;17.00;8.70;;;5.70;55.20;;;;;;5095979;28;20040;-69
2022/03/01 02:17:04;;;;;;;18.48;9.07;;;5.70;55.40;;;;;;5114037;28;20035;-69
2022/03/01 02:19:30;;;;;;;15.30;8.38;;;5.70;55.20;;;;;;5113144;28;20383;-69
2022/03/01 02:21:57;;;;;;;18.67;8.85;;;5.70;55.00;;;;;;5113855;28;20028;-69
2022/03/01 02:24:25;;;;;;;17.17;9.23;;;5.80;55.10;;;;;;5113839;28;20012;-68
2022/03/01 02:26:55;;;;;;;17.70;8.93;;;5.80;55.40;;;;;;5113851;28;20351;-69
2022/03/01 02:29:21;;;;;;;17.60;9.32;;;5.70;55.60;;;;;;5113791;28;20466;-69
2022/03/01 02:31:47;;;;;;;17.90;9.80;;;5.60;55.50;;;;;;5113769;28;20035;-69
2022/03/01 02:34:13;;;;;;;20.80;8.60;;;5.50;55.90;;;;;;5113757;28;20080;-69
2022/03/01 02:36:39;;;;;;;18.02;8.98;;;5.50;55.90;;;;;;5113699;28;20052;-69
2022/03/01 02:39:04;;;;;;;22.77;10.43;;;5.60;55.70;;;;;;5095760;28;20032;-68
2022/03/01 02:41:30;;;;;;;16.13;8.98;;;5.60;56.10;;;;;;5095766;28;20038;-69
2022/03/01 02:43:56;;;;;;;19.02;9.05;;;5.60;56.70;;;;;;5113426;28;20036;-69
2022/03/01 02:46:22;;;;;;;17.98;9.48;;;5.60;56.90;;;;;;5113660;28;20031;-69
2022/03/01 02:48:47;;;;;;;18.05;8.57;;;5.70;56.70;;;;;;5113516;28;20031;-69
2022/03/01 02:51:13;;;;;;;17.30;8.75;;;5.70;56.60;;;;;;5095719;28;20025;-69
2022/03/01 02:53:38;;;;;;;18.88;8.85;;;5.60;56.80;;;;;;5113478;28;20042;-68
2022/03/01 02:56:05;;;;;;;17.90;8.55;;;5.70;56.70;;;;;;5095576;28;20028;-69
2022/03/01 02:58:30;;;;;;;16.23;8.63;;;5.70;56.80;;;;;;5113441;28;20157;-69
2022/03/01 03:00:56;;;;;;;17.42;8.45;;;5.60;57.70;;;;;;5113476;28;20020;-69
2022/03/01 03:03:21;;;;;;;17.80;9.02;;;5.50;57.00;;;;;;5113332;28;20047;-69
2022/03/01 03:05:47;;;;;;;17.40;8.90;;;5.50;57.40;;;;;;5095519;28;20028;-69
2022/03/01 03:08:13;;;;;;;19.30;9.05;;;5.50;57.80;;;;;;5113333;28;20119;-69
2022/03/01 03:10:39;;;;;;;18.55;9.50;;;5.50;57.80;;;;;;5113320;28;20016;-69
2022/03/01 03:13:05;;;;;;;19.50;9.95;;;5.50;57.80;;;;;;5113293;28;20038;-69
2022/03/01 03:15:31;;;;;;;19.55;9.60;;;5.40;57.50;;;;;;5113238;28;20035;-69
2022/03/01 03:17:57;;;;;;;20.23;9.80;;;5.40;57.50;;;;;;5113232;28;20043;-69
2022/03/01 03:20:24;;;;;;;19.00;9.68;;;5.30;57.20;;;;;;5113215;28;20028;-68
2022/03/01 03:22:50;;;;;;;17.77;9.20;;;5.40;57.00;;;;;;5113109;28;20046;-68
2022/03/01 03:25:15;;;;;;;21.73;9.82;;;5.40;56.90;;;;;;5113092;28;20519;-69
2022/03/01 03:27:41;;;;;;;19.17;9.32;;;5.30;57.10;;;;;;5113166;28;20466;-68
2022/03/01 03:30:08;;;;;;;19.70;9.40;;;5.30;57.50;;;;;;5113137;28;20021;-69
2022/03/01 03:32:35;;;;;;;18.73;10.27;;;5.00;58.00;;;;;;5116613;28;20028;-69
2022/03/01 03:35:01;;;;;;;21.42;9.82;;;4.90;58.50;;;;;;5117131;28;20032;-69
2022/03/01 03:37:26;;;;;;;18.60;9.30;;;4.90;59.00;;;;;;5117068;28;20028;-69
2022/03/01 03:39:52;;;;;;;18.38;9.38;;;5.00;59.40;;;;;;5117032;28;20058;-69
2022/03/01 03:42:18;;;;;;;16.73;9.23;;;5.10;59.10;;;;;;5116942;28;20028;-68
2022/03/01 03:44:44;;;;;;;19.90;9.30;;;5.20;59.00;;;;;;5116776;28;20056;-69
2022/03/01 03:47:09;;;;;;;20.33;9.57;;;5.30;58.90;;;;;;5082173;28;20020;-69
2022/03/01 03:49:37;;;;;;;19.17;9.52;;;5.30;58.90;;;;;;5116873;28;20020;-69
2022/03/01 03:52:04;;;;;;;18.00;9.60;;;5.30;58.80;;;;;;5116841;28;20025;-68
2022/03/01 03:54:30;;;;;;;18.58;9.35;;;5.30;59.00;;;;;;5116785;28;20046;-69
2022/03/01 03:56:56;;;;;;;16.40;8.43;;;5.20;59.30;;;;;;5116715;28;20020;-68
2022/03/01 03:59:21;;;;;;;21.73;9.57;;;5.20;59.50;;;;;;5098650;28;20024;-68
2022/03/01 04:01:47;;;;;;;20.15;10.68;;;5.30;59.40;;;;;;5116532;28;20031;-68
2022/03/01 04:04:13;;;;;;;20.63;9.35;;;5.20;59.30;;;;;;5116607;28;20107;-68
2022/03/01 04:06:38;;;;;;;18.40;9.60;;;5.10;59.60;;;;;;5116541;28;20020;-68
2022/03/01 04:09:05;;;;;;;17.55;9.55;;;5.00;59.90;;;;;;5116560;28;20024;-68
2022/03/01 04:11:31;;;;;;;17.15;8.93;;;5.10;60.10;;;;;;5116449;28;20052;-69
2022/03/01 04:13:57;;;;;;;18.13;9.23;;;5.00;60.00;;;;;;5116393;28;20044;-68
2022/03/01 04:16:23;;;;;;;21.40;9.88;;;5.10;60.00;;;;;;5116371;28;20024;-69
2022/03/01 04:18:49;;;;;;;18.13;9.25;;;5.10;59.70;;;;;;5116316;28;20020;-68
2022/03/01 04:21:16;;;;;;;20.67;9.73;;;5.00;60.00;;;;;;5098440;28;20027;-69
2022/03/01 04:23:42;;;;;;;17.33;8.77;;;5.00;60.40;;;;;;5116074;28;20024;-69
2022/03/01 04:26:08;;;;;;;22.02;9.93;;;5.00;60.50;;;;;;5116158;28;20020;-68
2022/03/01 04:28:33;;;;;;;19.00;10.10;;;5.00;60.50;;;;;;5098152;28;20028;-69
2022/03/01 04:30:59;;;;;;;20.98;9.52;;;5.00;60.70;;;;;;5098172;28;20027;-69
2022/03/01 04:33:25;;;;;;;16.55;9.30;;;5.10;60.70;;;;;;5116031;28;20024;-69
2022/03/01 04:35:51;;;;;;;21.60;9.98;;;5.10;60.60;;;;;;5098056;28;20050;-69
2022/03/01 04:38:17;;;;;;;20.52;9.55;;;5.20;60.40;;;;;;5098037;28;20119;-69
2022/03/01 04:40:43;;;;;;;20.02;9.23;;;5.20;60.20;;;;;;5098205;28;20036;-69
2022/03/01 04:43:10;;;;;;;20.52;9.85;;;5.20;60.00;;;;;;5096892;28;20035;-68
2022/03/01 04:45:36;;;;;;;24.13;9.63;;;5.30;59.90;;;;;;5095635;28;20032;-69
2022/03/01 04:48:02;;;;;;;21.80;10.63;;;5.30;59.90;;;;;;5095460;28;20123;-69
2022/03/01 04:50:27;;;;;;;21.63;9.75;;;5.30;59.80;;;;;;5095399;28;20028;-69
2022/03/01 04:52:53;;;;;;;16.65;8.77;;;5.20;60.10;;;;;;5095353;28;20047;-68
2022/03/01 04:55:19;;;;;;;18.38;9.23;;;5.20;60.30;;;;;;5095325;28;20032;-68
2022/03/01 04:57:44;;;;;;;19.58;8.95;;;5.20;60.00;;;;;;5095248;28;20050;-69
2022/03/01 05:00:12;;;;;;;17.30;8.63;;;5.10;60.40;;;;;;5094209;28;20081;-69
2022/03/01 05:02:43;;;;;;;18.38;10.00;;;4.90;60.70;;;;;;5095073;28;20129;-69
2022/03/01 05:05:10;;;;;;;13.73;7.18;;;4.80;61.00;;;;;;5095126;28;20025;-68
2022/03/01 05:07:44;;;;;;;18.88;9.43;;;4.90;61.10;;;;;;5095070;28;20016;-69
2022/03/01 05:10:12;;;;;;;18.73;9.05;;;4.90;60.70;;;;;;5095029;28;20024;-69
2022/03/01 05:12:49;;;;;;;18.08;9.15;;;4.90;60.50;;;;;;5094948;28;20032;-69
2022/03/01 05:15:15;;;;;;;18.50;8.68;;;4.90;60.60;;;;;;5095089;28;20035;-68
2022/03/01 05:17:42;;;;;;;17.10;8.13;;;4.60;61.10;;;;;;5094876;28;20035;-69
2022/03/01 05:20:08;;;;;;;18.58;9.32;;;4.50;61.50;;;;;;5094790;28;20032;-69
2022/03/01 05:22:34;;;;;;;20.15;9.48;;;4.50;61.90;;;;;;5093748;28;20032;-68
2022/03/01 05:25:01;;;;;;;19.85;9.85;;;4.40;62.20;;;;;;5093651;28;20040;-68
2022/03/01 05:27:28;;;;;;;21.08;9.50;;;4.50;62.50;;;;;;5093851;28;20021;-68
2022/03/01 05:29:54;;;;;;;16.48;9.40;;;4.60;62.40;;;;;;5094626;28;20020;-68
2022/03/01 05:32:20;;;;;;;20.92;9.88;;;4.70;63.10;;;;;;5094564;28;20055;-69
2022/03/01 05:34:45;;;;;;;17.45;9.02;;;4.80;62.30;;;;;;5094477;28;20036;-69
2022/03/01 05:37:11;;;;;;;20.10;9.70;;;4.80;62.40;;;;;;5094580;28;20036;-69
2022/03/01 05:39:37;;;;;;;20.40;9.50;;;4.90;62.20;;;;;;5093383;28;20036;-69
2022/03/01 05:42:03;;;;;;;19.85;9.35;;;4.80;62.20;;;;;;5094418;28;20028;-69
2022/03/01 05:44:28;;;;;;;23.85;10.55;;;4.80;62.40;;;;;;5104941;28;20056;-68
2022/03/01 05:46:54;;;;;;;17.38;9.13;;;4.70;62.30;;;;;;5114626;28;20040;-68
2022/03/01 05:49:19;;;;;;;17.45;8.85;;;4.60;62.90;;;;;;5114569;28;20020;-68
2022/03/01 05:51:45;;;;;;;18.90;9.52;;;4.60;63.00;;;;;;5114520;28;20038;-69
2022/03/01 05:54:11;;;;;;;18.58;9.60;;;4.50;63.20;;;;;;5096463;28;20054;-69
2022/03/01 05:56:36;;;;;;;17.95;8.75;;;4.50;63.30;;;;;;5079760;28;20043;-69
2022/03/01 05:59:02;;;;;;;19.77;9.75;;;4.40;63.40;;;;;;5096504;28;20032;-68
2022/03/01 06:01:28;;;;;;;19.77;10.07;;;4.50;63.80;;;;;;5096344;28;20032;-69
2022/03/01 06:03:53;;;;;;;17.05;9.57;;;4.50;63.20;;;;;;5114274;28;20035;-69
2022/03/01 06:06:19;;;;;;;20.85;9.80;;;4.60;62.90;;;;;;5114382;28;20051;-69
2022/03/01 06:08:45;;;;;;;18.98;9.48;;;4.60;62.70;;;;;;5114322;28;20024;-69
2022/03/01 06:11:11;;;;;;;21.38;9.90;;;4.60;62.60;;;;;;5114137;28;20028;-69
2022/03/01 06:13:39;;;;;;;22.13;10.38;;;4.60;62.60;;;;;;5114139;28;20024;-69
2022/03/01 06:16:06;;;;;;;22.92;9.77;;;4.50;62.80;;;;;;5114077;28;20028;-69
2022/03/01 06:18:32;;;;;;;22.20;10.70;;;4.50;63.00;;;;;;5114017;28;20020;-69
2022/03/01 06:20:59;;;;;;;22.75;10.45;;;4.30;63.20;;;;;;5114051;28;20480;-68
2022/03/01 06:23:24;;;;;;;24.88;10.90;;;4.30;63.20;;;;;;5113813;28;20028;-69
2022/03/01 06:25:50;;;;;;;20.67;10.95;;;4.20;63.60;;;;;;5113863;28;20030;-69
2022/03/01 06:28:16;;;;;;;25.17;10.98;;;4.10;63.90;;;;;;5113830;28;20309;-68
2022/03/01 06:30:42;;;;;;;20.95;10.32;;;4.00;64.00;;;;;;5113928;28;20016;-68
2022/03/01 06:33:07;;;;;;;20.40;9.95;;;3.90;64.50;;;;;;5113803;28;20060;-67
2022/03/01 06:35:33;;;;;;;21.75;10.35;;;3.80;64.90;;;;;;5113798;28;20032;-68
2022/03/01 06:37:59;;;;;;;23.20;10.68;;;3.80;65.00;;;;;;5113783;28;20046;-68
2022/03/01 06:40:25;;;;;;;25.35;10.05;;;3.80;65.10;;;;;;5095765;28;20028;-68
2022/03/01 06:42:50;;;;;;;20.48;9.52;;;3.90;64.80;;;;;;5113578;28;20024;-68
2022/03/01 06:45:17;;;;;;;22.63;10.48;;;3.90;64.50;;;;;;5113418;28;20044;-69
2022/03/01 06:47:42;;;;;;;23.30;10.95;;;4.00;64.30;;;;;;5113595;28;20031;-69
2022/03/01 06:50:09;;;;;;;19.58;10.48;;;4.00;64.20;;;;;;5095704;28;20016;-69
2022/03/01 06:52:35;;;;;;;21.65;9.70;;;4.00;64.40;;;;;;5113491;28;20026;-69
2022/03/01 06:55:05;;;;;;;20.17;9.85;;;4.00;64.30;;;;;;5113475;28;20024;-69
2022/03/01 06:57:31;;;;;;;18.25;9.65;;;4.20;64.40;;;;;;5095987;28;20032;-69
2022/03/01 06:59:57;;;;;;;18.70;9.30;;;4.30;64.00;;;;;;5095623;28;20036;-69
2022/03/01 07:02:27;;;;;;;21.23;9.60;;;4.30;63.80;;;;;;5113303;28;20047;-69
2022/03/01 07:04:54;;;;;;;23.42;9.77;;;4.40;63.30;;;;;;5113362;28;20533;-69
2022/03/01 07:07:22;;;;;;;21.23;10.10;;;4.40;62.90;;;;;;5112824;28;20020;-68
2022/03/01 07:09:48;;;;;;;18.42;9.48;;;4.50;62.80;;;;;;5113330;28;20024;-69
2022/03/01 07:12:14;;;;;;;17.98;9.10;;;4.60;62.70;;;;;;5113203;28;20028;-68
2022/03/01 07:14:39;;;;;;;19.60;9.18;;;4.60;62.90;;;;;;5113286;28;20027;-68
2022/03/01 07:17:05;;;;;;;26.27;9.70;;;4.60;62.90;;;;;;5113266;28;20039;-68
2022/03/01 07:19:31;;;;;;;24.98;10.15;;;4.60;62.80;;;;;;5113256;28;20029;-68
2022/03/01 07:21:56;;;;;;;18.83;9.30;;;4.70;63.10;;;;;;5113305;28;20148;-68
2022/03/01 07:24:22;;;;;;;23.42;9.80;;;4.70;63.30;;;;;;5113128;28;20016;-68
2022/03/01 07:26:49;;;;;;;20.10;9.93;;;4.80;63.40;;;;;;5113173;28;20358;-68
2022/03/01 07:29:14;;;;;;;19.83;9.75;;;4.80;62.90;;;;;;5113166;28;20031;-68
2022/03/01 07:31:40;;;;;;;23.98;10.15;;;4.90;62.80;;;;;;5113131;28;20025;-68
2022/03/01 07:34:06;;;;;;;21.75;10.50;;;4.90;62.80;;;;;;5078400;28;20031;-68
2022/03/01 07:36:31;;;;;;;22.13;10.27;;;5.00;62.80;;;;;;5095282;28;20051;-68
2022/03/01 07:38:57;;;;;;;22.50;10.57;;;5.00;62.80;;;;;;5113054;28;20028;-68
2022/03/01 07:41:23;;;;;;;20.67;9.60;;;5.00;62.70;;;;;;5113040;28;20025;-68
2022/03/01 07:43:49;;;;;;;19.02;9.55;;;5.10;62.10;;;;;;5112765;28;20051;-68
2022/03/01 07:46:15;;;;;;;20.33;9.88;;;5.00;62.00;;;;;;5113144;28;20021;-68
2022/03/01 07:48:41;;;;;;;19.98;10.15;;;5.00;62.40;;;;;;5095082;28;20066;-68
2022/03/01 07:51:07;;;;;;;22.88;10.10;;;5.10;62.40;;;;;;5112931;28;20020;-68
2022/03/01 07:53:34;;;;;;;18.20;9.93;;;5.10;62.20;;;;;;5112845;28;20031;-68
2022/03/01 07:56:00;;;;;;;18.50;9.18;;;5.20;62.00;;;;;;5094963;28;20048;-68
2022/03/01 07:58:26;;;;;;;21.42;9.50;;;5.30;62.10;;;;;;5112897;28;20040;-68
2022/03/01 08:00:52;;;;;;;20.77;10.07;;;5.30;62.30;;;;;;5095209;28;20111;-68
2022/03/01 08:03:18;;;;;;;23.77;11.25;;;5.30;62.30;;;;;;5094773;28;20032;-68
2022/03/01 08:05:45;;;;;;;20.90;11.05;;;5.40;62.20;;;;;;5112955;28;20031;-68
2022/03/01 08:08:11;;;;;;;19.17;10.70;;;5.40;62.30;;;;;;5112807;28;20013;-68
2022/03/01 08:10:37;;;;;;;21.98;10.85;;;5.40;62.20;;;;;;5112556;28;20024;-68
2022/03/01 08:13:03;;;;;;;19.95;10.02;;;5.40;62.60;;;;;;5094953;28;20025;-68
2022/03/01 08:15:30;;;;;;;19.30;10.05;;;5.40;62.40;;;;;;5112708;28;20032;-67
2022/03/01 08:17:57;;;;;;;23.40;10.73;;;5.40;62.30;;;;;;5113412;28;20028;-67
2022/03/01 08:20:24;;;;;;;19.35;10.02;;;5.40;62.30;;;;;;5116332;28;20024;-67
2022/03/01 08:22:51;;;;;;;18.40;10.77;;;5.40;62.50;;;;;;5116206;28;20091;-67
2022/03/01 08:25:19;;;;;;;23.95;11.57;;;5.40;63.00;;;;;;5116197;28;20026;-68
2022/03/01 08:27:45;;;;;;;21.38;10.27;;;5.40;64.10;;;;;;5098193;28;20055;-67
2022/03/01 08:30:11;;;;;;;21.00;10.80;;;5.40;63.70;;;;;;5098338;28;20024;-68
2022/03/01 08:32:38;;;;;;;22.95;11.18;;;5.40;63.70;;;;;;5116076;28;20020;-68
2022/03/01 08:35:04;;;;;;;23.63;10.60;;;5.40;63.80;;;;;;5116054;28;20039;-68
2022/03/01 08:37:30;;;;;;;22.58;11.10;;;5.40;63.90;;;;;;5116116;28;20031;-68
2022/03/01 08:39:56;;;;;;;19.10;9.70;;;5.40;63.70;;;;;;5115932;28;20024;-68
2022/03/01 08:42:22;;;;;;;22.27;11.50;;;5.50;64.00;;;;;;5097841;28;20036;-67
2022/03/01 08:44:47;;;;;;;22.85;11.07;;;5.50;63.50;;;;;;5115648;28;20555;-67
2022/03/01 08:47:13;;;;;;;20.38;9.75;;;5.50;63.70;;;;;;5115842;28;20028;-68
2022/03/01 08:49:38;;;;;;;20.73;10.90;;;5.50;63.20;;;;;;5115741;28;20036;-67
2022/03/01 08:52:04;;;;;;;22.45;9.38;;;5.50;62.80;;;;;;5097753;28;20058;-68
2022/03/01 08:54:30;;;;;;;20.63;9.32;;;5.60;63.60;;;;;;5115667;28;20049;-67
2022/03/01 08:56:55;;;;;;;22.58;10.20;;;5.60;64.20;;;;;;5115634;28;20032;-67
2022/03/01 08:59:22;;;;;;;23.63;10.10;;;5.60;63.80;;;;;;5080841;28;20103;-67
2022/03/01 09:01:48;;;;;;;21.67;10.52;;;5.60;63.40;;;;;;5097504;28;20035;-67
2022/03/01 09:04:13;;;;;;;19.20;10.27;;;5.70;61.90;;;;;;5115454;28;20028;-67
2022/03/01 09:06:39;;;;;;;19.05;10.57;;;5.60;62.00;;;;;;5115391;28;20069;-68
2022/03/01 09:09:05;;;;;;;20.52;10.77;;;5.70;63.40;;;;;;5115330;28;20124;-67
2022/03/01 09:11:31;;;;;;;20.27;10.73;;;5.70;63.50;;;;;;5115340;28;20024;-67
2022/03/01 09:13:56;;;;;;;22.35;10.48;;;5.70;63.40;;;;;;5115298;28;20044;-68
2022/03/01 09:16:22;;;;;;;20.45;10.63;;;5.80;63.30;;;;;;5115226;28;20107;-68
2022/03/01 09:18:48;;;;;;;20.90;10.35;;;5.90;62.40;;;;;;5115317;28;20172;-67
2022/03/01 09:21:14;;;;;;;21.20;10.52;;;5.90;62.50;;;;;;5115144;28;20024;-67
2022/03/01 09:23:41;;;;;;;20.67;9.70;;;5.90;62.00;;;;;;5114881;28;20039;-68
2022/03/01 09:26:07;;;;;;;23.08;10.50;;;5.90;62.90;;;;;;5115060;28;20017;-68
2022/03/01 09:28:33;;;;;;;19.67;10.63;;;6.00;63.00;;;;;;5096807;28;20050;-67
2022/03/01 09:30:59;;;;;;;21.02;10.90;;;6.10;62.90;;;;;;5114956;28;20031;-67
2022/03/01 09:33:24;;;;;;;22.42;11.30;;;6.10;62.30;;;;;;5096989;28;20054;-67
2022/03/01 09:35:50;;;;;;;21.65;10.55;;;6.20;61.90;;;;;;5114857;28;20032;-68
2022/03/01 09:38:16;;;;;;;22.42;10.57;;;6.20;61.50;;;;;;5114814;28;20088;-68
2022/03/01 09:40:44;;;;;;;20.27;10.35;;;6.30;61.30;;;;;;5114819;28;20432;-68
2022/03/01 09:43:10;;;;;;;22.67;10.40;;;6.40;61.00;;;;;;5114632;28;20035;-68
2022/03/01 09:45:36;;;;;;;20.73;10.95;;;6.50;61.10;;;;;;5096537;28;20074;-67
2022/03/01 09:48:02;;;;;;;20.73;10.45;;;6.50;61.20;;;;;;5114629;28;20044;-68
2022/03/01 09:50:27;;;;;;;19.88;10.27;;;6.50;61.20;;;;;;5114578;28;20020;-68
2022/03/01 09:52:59;;;;;;;20.23;10.93;;;6.70;60.60;;;;;;5114575;28;20032;-68
2022/03/01 09:55:25;;;;;;;22.48;10.63;;;6.90;60.80;;;;;;5114562;28;20056;-68
2022/03/01 09:57:51;;;;;;;20.80;10.93;;;6.90;60.10;;;;;;5114443;28;20051;-67
2022/03/01 10:00:17;;;;;;;20.50;11.00;;;7.00;60.70;;;;;;5096582;28;20025;-68
2022/03/01 10:02:43;;;;;;;20.13;10.23;;;7.00;59.60;;;;;;5096482;28;20032;-67
2022/03/01 10:05:12;;;;;;;27.02;11.57;;;7.10;60.30;;;;;;5114323;28;20038;-68
2022/03/01 10:07:45;;;;;;;19.33;10.93;;;7.20;59.10;;;;;;5114241;28;20079;-68
2022/03/01 10:10:16;;;;;;;26.77;11.52;;;7.20;59.30;;;;;;5114391;28;20024;-68
2022/03/01 10:12:43;;;;;;;21.20;10.40;;;7.20;58.90;;;;;;5114234;28;20419;-68
2022/03/01 10:15:10;;;;;;;22.48;10.93;;;7.20;60.00;;;;;;5114167;28;20020;-68
2022/03/01 10:17:43;;;;;;;22.10;9.27;;;7.20;58.90;;;;;;5096065;28;20035;-68
2022/03/01 10:20:11;;;;;;;17.88;10.30;;;7.20;59.20;;;;;;5114131;28;20043;-68
2022/03/01 10:22:47;;;;;;;20.55;10.27;;;7.20;59.60;;;;;;5113933;28;20056;-68
2022/03/01 10:25:15;;;;;;;19.83;10.63;;;7.30;59.60;;;;;;5113980;28;20023;-68
2022/03/01 10:27:43;;;;;;;20.77;11.02;;;7.40;58.70;;;;;;5113926;28;20028;-67
2022/03/01 10:30:09;;;;;;;21.08;11.13;;;7.50;59.30;;;;;;5113891;28;20024;-67
2022/03/01 10:32:35;;;;;;;20.92;10.43;;;7.60;58.30;;;;;;5113803;28;20039;-68
2022/03/01 10:35:05;;;;;;;21.40;11.68;;;7.60;58.20;;;;;;5113794;28;20028;-67
2022/03/01 10:37:34;;;;;;;21.85;11.55;;;7.60;57.10;;;;;;5113676;28;20032;-67
2022/03/01 10:40:20;;;;;;;20.75;11.48;;;7.70;57.20;;;;;;5113400;28;20035;-68
2022/03/01 10:43:10;;;;;;;20.40;11.05;;;7.70;56.50;;;;;;5113602;28;20030;-68
2022/03/01 10:45:41;;;;;;;22.70;10.68;;;7.70;56.80;;;;;;5113432;28;20066;-68
2022/03/01 10:48:10;;;;;;;21.43;11.67;;;7.70;57.60;;;;;;5113799;28;20067;-68
2022/03/01 10:50:37;;;;;;;19.17;11.45;;;7.70;56.70;;;;;;5113556;28;20042;-67
2022/03/01 10:53:05;;;;;;;18.63;10.75;;;7.80;56.90;;;;;;5113526;28;20497;-67
2022/03/01 10:55:34;;;;;;;21.17;10.43;;;7.80;55.60;;;;;;5113475;28;20026;-67
2022/03/01 10:58:10;;;;;;;18.98;11.32;;;7.80;55.80;;;;;;5113430;28;20031;-67
2022/03/01 11:00:37;;;;;;;20.83;10.23;;;7.90;57.30;;;;;;5113643;28;20028;-67
2022/03/01 11:03:07;;;;;;;24.05;11.88;;;7.90;57.60;;;;;;5113331;28;20042;-68
2022/03/01 11:05:34;;;;;;;25.17;12.57;;;8.00;57.70;;;;;;5113359;28;20020;-68
2022/03/01 11:08:08;;;;;;;18.08;9.68;;;8.10;56.60;;;;;;5113087;28;20042;-68
2022/03/01 11:10:36;;;;;;;21.45;11.23;;;8.10;57.20;;;;;;5113408;28;20433;-68
2022/03/01 11:13:03;;;;;;;18.42;10.10;;;8.10;56.10;;;;;;5113288;28;20390;-67
2022/03/01 11:15:38;;;;;;;19.33;10.82;;;8.20;55.70;;;;;;5113306;28;20024;-68
2022/03/01 11:18:34;;;;;;;19.65;12.35;;;8.20;56.50;;;;;;5113460;28;20028;-67
2022/03/01 11:21:03;;;;;;;19.85;10.43;;;8.30;56.30;;;;;;5113323;28;20025;-67
2022/03/01 11:23:30;;;;;;;25.40;10.90;;;8.30;54.00;;;;;;5113090;28;20020;-68
2022/03/01 11:26:07;;;;;;;20.27;10.50;;;8.30;55.50;;;;;;5113068;28;20103;-68
2022/03/01 11:28:40;;;;;;;19.85;10.65;;;8.40;55.60;;;;;;5113207;28;20083;-68
2022/03/01 11:31:30;;;;;;;20.83;10.32;;;8.40;55.80;;;;;;5113326;28;20020;-68
2022/03/01 11:34:01;;;;;;;21.33;10.77;;;8.40;56.10;;;;;;5113276;28;20020;-68
2022/03/01 11:36:32;;;;;;;19.20;10.48;;;8.40;56.70;;;;;;5112974;28;20035;-68
2022/03/01 11:39:29;;;;;;;18.80;10.57;;;8.50;56.10;;;;;;5113120;28;20031;-68
2022/03/01 11:42:06;;;;;;;19.17;10.52;;;8.50;56.60;;;;;;5113007;28;20092;-68
2022/03/01 11:44:35;;;;;;;19.38;10.82;;;8.50;54.60;;;;;;5112835;28;20083;-68
2022/03/01 11:47:02;;;;;;;21.95;11.07;;;8.60;55.60;;;;;;5112981;28;20023;-68
2022/03/01 11:49:34;;;;;;;19.08;10.40;;;8.60;56.60;;;;;;5095218;28;20031;-68
2022/03/01 11:52:01;;;;;;;22.67;12.07;;;8.60;54.00;;;;;;5113919;28;20027;-68
2022/03/01 11:54:36;;;;;;;21.05;11.23;;;8.70;56.20;;;;;;5098838;28;20032;-68
2022/03/01 11:57:05;;;;;;;20.75;10.73;;;8.70;55.60;;;;;;5116888;28;20486;-68
2022/03/01 11:59:31;;;;;;;21.58;11.30;;;8.80;54.70;;;;;;5116746;28;20024;-67
2022/03/01 12:01:57;;;;;;;21.88;11.40;;;8.70;54.00;;;;;;5116613;28;20039;-67
2022/03/01 12:04:26;;;;;;;23.35;11.90;;;8.80;54.30;;;;;;5116714;28;20049;-68
2022/03/01 12:06:55;;;;;;;23.00;12.25;;;8.80;54.70;;;;;;5116612;28;20024;-68
2022/03/01 12:09:27;;;;;;;22.10;11.27;;;9.00;54.00;;;;;;5116591;28;20046;-68
2022/03/01 12:12:06;;;;;;;24.02;11.82;;;8.90;52.20;;;;;;5098630;28;20028;-68
2022/03/01 12:14:34;;;;;;;23.38;10.88;;;8.90;53.80;;;;;;5116427;28;20028;-68
2022/03/01 12:17:02;;;;;;;20.52;11.27;;;9.00;55.00;;;;;;5116431;28;20017;-68
2022/03/01 12:19:31;;;;;;;21.90;11.95;;;9.00;53.70;;;;;;5116371;28;20025;-68
2022/03/01 12:21:58;;;;;;;19.52;10.80;;;9.10;55.20;;;;;;5116243;28;20028;-68
2022/03/01 12:24:29;;;;;;;20.90;10.95;;;9.20;54.10;;;;;;5116197;28;20086;-68
2022/03/01 12:26:57;;;;;;;19.08;11.60;;;9.20;52.80;;;;;;5116262;28;20028;-68
2022/03/01 12:29:33;;;;;;;20.63;11.65;;;9.30;53.90;;;;;;5116273;28;20413;-68
2022/03/01 12:32:03;;;;;;;22.58;12.65;;;9.30;54.40;;;;;;5116202;28;20016;-68
2022/03/01 12:34:30;;;;;;;25.00;12.13;;;9.30;52.80;;;;;;5098131;28;20028;-68
2022/03/01 12:36:58;;;;;;;21.33;10.85;;;9.30;53.00;;;;;;5116017;28;20024;-68
2022/03/01 12:39:27;;;;;;;19.52;11.48;;;9.30;54.20;;;;;;5115955;28;20020;-68
2022/03/01 12:41:53;;;;;;;23.70;12.13;;;9.30;53.60;;;;;;5115876;28;20046;-68